»·PEaware :: N2193 KPDX-KOTH

N2193 :: KPDX-KOTH

FLIGHT INFORMATION

Flight Status: Arrived
Operator: Privately registered:
United States
More flights under this callsign
Pilot: Matthew T. (18160)
Aircraft: BEECH AIRCRAFT A90-E90 KING AIR
(BE9L)
More flights by this aircraft type
Origin: KPDX Portland Intl
United States
Destination: KOTH North Bend Mun
United States
More flights between these airports :: More routes between these airports
Route: PTLD1 UBG OTH
File this flight plan on PilotEdge
Remarks:
Altitude:
(Current/Filed)
12,000ft
Speed:
(Current/Filed)
170kts
Departed: 21-Mar-18 10:54 AM
Arrived: 21-Mar-18 12:05 PM
Distance/Time
Traveled:
148nm/1:11
Distance/Time
To Go:
Arrived

Flight Plot

Page will automatically refresh every two minutes.

Flight plan parsing failed; only flown route is shown


Map Options




Map Legend


Flown Route
Filed Route
Departure Airport
Arrival Airport
Navaid (VOR, NDB)
Fix

Horizontal Profiles

Position Reports

Time Latitude Longitude Heading Altitude Ground
Speed
21-Mar-18 10:22 45.587622 -122.584004 210 19ft 0kts
21-Mar-18 10:23 45.587622 -122.584004 209 19ft 0kts
21-Mar-18 10:24 45.587622 -122.584004 209 19ft 0kts
21-Mar-18 10:25 45.587622 -122.584004 209 19ft 0kts
21-Mar-18 10:26 45.587622 -122.584004 209 19ft 0kts
21-Mar-18 10:27 45.587622 -122.584004 209 19ft 0kts
21-Mar-18 10:28 45.587622 -122.584004 209 19ft 0kts
21-Mar-18 10:29 45.587622 -122.584004 209 19ft 0kts
21-Mar-18 10:30 45.587622 -122.584004 209 19ft 0kts
21-Mar-18 10:31 45.587622 -122.584004 209 19ft 0kts
21-Mar-18 10:32 45.587622 -122.584004 209 19ft 0kts
21-Mar-18 10:33 45.587622 -122.584004 209 19ft 0kts
21-Mar-18 10:34 45.587622 -122.584004 209 19ft 0kts
21-Mar-18 10:35 45.587622 -122.584004 209 19ft 0kts
21-Mar-18 10:36 45.587622 -122.584004 209 19ft 0kts
21-Mar-18 10:37 45.587622 -122.584004 209 19ft 0kts
21-Mar-18 10:38 45.587622 -122.584004 209 19ft 0kts
21-Mar-18 10:39 45.587622 -122.584004 209 19ft 0kts
21-Mar-18 10:40 45.587622 -122.584004 209 19ft 0kts
21-Mar-18 10:41 45.587622 -122.584004 209 19ft 0kts
21-Mar-18 10:42 45.587622 -122.584004 209 19ft 0kts
21-Mar-18 10:43 45.587622 -122.584004 209 19ft 0kts
21-Mar-18 10:44 45.587622 -122.584004 209 19ft 0kts
21-Mar-18 10:45 45.587530 -122.583971 131 19ft 4kts
21-Mar-18 10:46 45.591231 -122.589672 300 19ft 36kts
21-Mar-18 10:47 45.594529 -122.597449 49 23ft 0kts
21-Mar-18 10:48 45.594528 -122.597449 49 23ft 0kts
21-Mar-18 10:49 45.594528 -122.597449 49 23ft 0kts
21-Mar-18 10:50 45.594528 -122.597449 49 23ft 0kts
21-Mar-18 10:51 45.594528 -122.597449 49 23ft 0kts
21-Mar-18 10:52 45.594528 -122.597449 49 23ft 0kts
21-Mar-18 10:53 45.593000 -122.591070 118 19ft 95kts
21-Mar-18 10:54 45.574108 -122.543317 117 1863ft 153kts
21-Mar-18 10:55 45.553924 -122.492966 123 4285ft 148kts
21-Mar-18 10:56 45.532987 -122.445656 117 6784ft 119kts
21-Mar-18 10:57 45.517526 -122.405574 120 8749ft 125kts
21-Mar-18 10:58 45.494018 -122.385814 255 10250ft 139kts
21-Mar-18 10:59 45.490348 -122.441097 239 10668ft 197kts
21-Mar-18 11:00 45.474257 -122.503807 246 12008ft 172kts
21-Mar-18 11:01 45.457195 -122.572366 246 12010ft 190kts
21-Mar-18 11:02 45.439003 -122.643924 246 12009ft 193kts
21-Mar-18 11:03 45.420617 -122.715975 246 12004ft 194kts
21-Mar-18 11:04 45.402158 -122.788089 246 12000ft 194kts
21-Mar-18 11:05 45.383663 -122.860117 246 11998ft 194kts
21-Mar-18 11:06 45.365092 -122.932222 246 11997ft 194kts
21-Mar-18 11:07 45.342115 -122.983538 209 11999ft 189kts
21-Mar-18 11:08 45.286716 -123.020470 204 12001ft 189kts
21-Mar-18 11:09 45.238772 -123.050926 204 12001ft 189kts
21-Mar-18 11:10 45.198780 -123.076247 204 11998ft 189kts
21-Mar-18 11:11 45.142821 -123.111679 203 11998ft 189kts
21-Mar-18 11:12 45.102876 -123.136901 204 12006ft 188kts
21-Mar-18 11:13 45.055093 -123.167021 204 12003ft 188kts
21-Mar-18 11:14 44.999647 -123.201906 204 12001ft 186kts
21-Mar-18 11:15 44.960320 -123.226605 205 12000ft 186kts
21-Mar-18 11:16 44.913250 -123.256127 205 12002ft 185kts
21-Mar-18 11:17 44.858814 -123.290193 205 12011ft 186kts
21-Mar-18 11:18 44.819334 -123.314856 205 12014ft 186kts
21-Mar-18 11:19 44.772179 -123.344263 205 12017ft 186kts
21-Mar-18 11:20 44.724870 -123.373715 205 12018ft 186kts
21-Mar-18 11:21 44.677560 -123.403114 205 12018ft 186kts
21-Mar-18 11:22 44.630177 -123.432506 205 12017ft 186kts
21-Mar-18 11:23 44.582956 -123.461745 205 12017ft 186kts
21-Mar-18 11:24 44.535589 -123.491022 205 12017ft 186kts
21-Mar-18 11:25 44.488362 -123.520161 205 12016ft 186kts
21-Mar-18 11:26 44.441122 -123.549256 205 12016ft 186kts
21-Mar-18 11:27 44.393915 -123.578279 205 12016ft 186kts
21-Mar-18 11:28 44.346665 -123.607278 205 12015ft 185kts
21-Mar-18 11:29 44.299412 -123.636226 205 12014ft 185kts
21-Mar-18 11:30 44.252026 -123.665203 204 12010ft 186kts
21-Mar-18 11:31 44.204757 -123.694060 204 12007ft 186kts
21-Mar-18 11:32 44.157350 -123.722962 204 12005ft 186kts
21-Mar-18 11:33 44.109972 -123.751773 204 12007ft 186kts
21-Mar-18 11:34 44.062649 -123.780509 204 12009ft 186kts
21-Mar-18 11:35 44.015253 -123.809243 204 12011ft 186kts
21-Mar-18 11:36 43.967951 -123.837867 204 12010ft 186kts
21-Mar-18 11:37 43.920514 -123.866523 204 12004ft 186kts
21-Mar-18 11:38 43.874063 -123.894535 204 12004ft 186kts
21-Mar-18 11:39 43.826445 -123.923195 204 11998ft 181kts
21-Mar-18 11:40 43.787617 -123.945846 201 11459ft 144kts
21-Mar-18 11:41 43.749663 -123.968811 200 9640ft 170kts
21-Mar-18 11:42 43.705096 -123.997031 204 6786ft 180kts
21-Mar-18 11:43 43.668807 -124.026526 277 6085ft 148kts
21-Mar-18 11:44 43.675358 -124.088206 270 6045ft 168kts
21-Mar-18 11:45 43.684489 -124.153149 273 6072ft 173kts
21-Mar-18 11:46 43.678631 -124.218186 253 6107ft 171kts
21-Mar-18 11:47 43.663953 -124.281837 247 6014ft 171kts
21-Mar-18 11:48 43.649362 -124.344887 244 6030ft 169kts
21-Mar-18 11:49 43.626194 -124.400332 221 5968ft 169kts
21-Mar-18 11:50 43.597436 -124.437512 218 6000ft 166kts
21-Mar-18 11:51 43.567108 -124.470896 211 6000ft 164kts
21-Mar-18 11:52 43.534584 -124.497264 202 5328ft 142kts
21-Mar-18 11:53 43.492570 -124.520184 194 3289ft 176kts
21-Mar-18 11:54 43.450397 -124.532564 185 2610ft 149kts
21-Mar-18 11:55 43.402785 -124.535180 176 2600ft 177kts
21-Mar-18 11:56 43.353946 -124.525544 165 2600ft 177kts
21-Mar-18 11:57 43.318656 -124.494240 64 2707ft 165kts
21-Mar-18 11:58 43.341632 -124.439341 62 2522ft 157kts
21-Mar-18 11:59 43.359476 -124.395626 63 2092ft 99kts
21-Mar-18 12:00 43.372871 -124.362654 63 1706ft 100kts
21-Mar-18 12:01 43.387127 -124.327863 63 1144ft 107kts
21-Mar-18 12:02 43.401411 -124.293285 64 646ft 105kts
21-Mar-18 12:03 43.415431 -124.258981 60 10ft 90kts
21-Mar-18 12:04 43.417654 -124.251187 150 23ft 0kts
21-Mar-18 12:05 43.417220 -124.249316 171 27ft 14kts
21-Mar-18 12:06 43.418849 -124.247076 105 17ft 20kts
21-Mar-18 12:07 43.417592 -124.247329 236 22ft 0kts
21-Mar-18 12:08 43.417593 -124.247328 236 22ft 0kts
21-Mar-18 12:09 43.417593 -124.247328 236 22ft 0kts

Navigation Log

Ident Type
Flight plan parsing failed, navigation log unavailable